Du har inga inställningar för hoppväder.nu

Hoppväder.nu

Senast uppdaterat 00:08

UTC-tid

2019-06-25 kl. 22:08


Sol och måne

Solen går upp 3:37 och går ner 23:17 (beräknade cirkatider)
Nästa fullmåne blir om 20 dagar (2019-07-16)

METAR

ESOW (Västerås)
(18 minuter sedan)
ESOW 252150Z AUTO VRB02KT 9999 -RA FEW024/// OVC068/// 15/14 Q1023 REDZ=



ESSA (Arlanda)
(18 minuter sedan)
ESSA 252150Z 14005KT CAVOK 15/10 Q1023 NOSIG=



ESKN (Skavsta)
(18 minuter sedan)
ESKN 252150Z 12004KT 9999 -SHRA BKN062CB 16/16 Q1022=



ESOE (Örebro)
(18 minuter sedan)
ESOE 252150Z 02006KT 9999 -DZ NSC 15/14 Q1022=



ESSD (Borlänge)
(18 minuter sedan)
ESSD 252150Z AUTO 22005KT 9999 BKN039/// OVC049/// 14/10 Q1023=



TAF

ESOW (Västerås)
ESOW



ESSA (Arlanda)
(278 minuter sedan)
ESSA 251730Z 2518/2618 13007KT CAVOK PROB40 2519/2524 RA TEMPO 2600/2608 4000 -RA PROB40 2608/2615 4000 SHRA BKN012 BKN060CB=



ESKN (Skavsta)
(278 minuter sedan)
ESKN 251730Z 2518/2618 12010KT CAVOK BECMG 2523/2601 04003KT TEMPO 2607/2615 08015KT 4000 SHRA TS BKN010 BKN060CB=



ESOE (Örebro)
(98 minuter sedan)
ESOE 252030Z 2521/2601 01003KT CAVOK PROB40 2521/2601 4000 RA BR=



ESSD (Borlänge)
ESSD





Kodnycklar till TAF och METAR






LHP

(Västerås är område G2b i Södra delen)

Prognos är inte uppdaterad




Spotting

Hur fungerar spotthjälpen och Vindkartan?

Markvind är ca 0 m/s.



Vindkartan

Senast uppdaterad 00:08




All data kommer från LFV.se